Time;durP1;ratioP1;P1;durP2;ratioP2;P2;SDS_P1;SDS_P2;PMS_P1;PMS_P2;Temp;Humidity;BMP_temperature;BMP_pressure;BME280_temperature;BME280_humidity;BME280_pressure;Samples;Min_cycle;Max_cycle;Signal;HPM_P1;HPM_P2
2024/01/11 00:01:51;;;;;;;148.90;61.80;;;;;;;-8.79;78.57;102011.17;105406;1259;81440;-59
2024/01/11 00:04:19;;;;;;;152.10;64.30;;;;;;;-8.75;79.11;102017.88;105287;1256;72222;-58
2024/01/11 00:06:47;;;;;;;154.80;65.20;;;;;;;-8.70;79.03;102018.69;105192;1261;69175;-57
2024/01/11 00:09:16;;;;;;;141.10;62.70;;;;;;;-8.76;78.58;102016.34;105301;1257;69206;-58
2024/01/11 00:11:44;;;;;;;148.10;63.50;;;;;;;-8.82;78.48;102009.99;105313;1257;73106;-57
2024/01/11 00:14:12;;;;;;;159.20;64.90;;;;;;;-8.88;78.32;102003.31;105324;1256;81958;-58
2024/01/11 00:16:41;;;;;;;173.20;71.20;;;;;;;-8.88;78.57;102003.45;105302;1257;72871;-58
2024/01/11 00:19:09;;;;;;;166.10;68.00;;;;;;;-8.83;78.94;102001.56;105346;1257;69109;-58
2024/01/11 00:21:38;;;;;;;160.50;68.40;;;;;;;-8.82;78.81;101985.40;105378;1259;69192;-58
2024/01/11 00:24:09;;;;;;;154.10;64.90;;;;;;;-8.81;79.04;101975.30;105333;1256;75259;-58
2024/01/11 00:26:37;;;;;;;151.40;62.60;;;;;;;-8.82;78.76;101975.79;105174;1258;82584;-58
2024/01/11 00:29:05;;;;;;;137.80;57.20;;;;;;;-8.82;78.86;101975.23;105378;1257;71680;-58
2024/01/11 00:31:33;;;;;;;155.10;63.40;;;;;;;-8.82;79.05;101968.09;105175;1257;69205;-58
2024/01/11 00:34:02;;;;;;;142.70;61.50;;;;;;;-8.85;78.98;101964.73;105353;1257;69150;-58
2024/01/11 00:36:30;;;;;;;154.80;63.70;;;;;;;-8.88;78.43;101957.86;105354;1257;74075;-58
2024/01/11 00:38:59;;;;;;;154.00;60.20;;;;;;;-8.94;78.65;101951.39;105337;1259;81740;-58
2024/01/11 00:41:27;;;;;;;150.30;63.90;;;;;;;-8.96;78.75;101960.94;105348;1259;74022;-58
2024/01/11 00:43:55;;;;;;;144.40;60.90;;;;;;;-8.91;79.06;101967.50;105349;1257;69151;-61
2024/01/11 00:46:24;;;;;;;148.50;61.90;;;;;;;-8.93;78.87;101969.94;105307;1255;69112;-58
2024/01/11 00:48:52;;;;;;;147.20;63.50;;;;;;;-8.97;78.74;101973.71;105163;1256;73692;-58
2024/01/11 00:51:23;;;;;;;142.00;63.30;;;;;;;-9.01;78.84;101975.70;105371;1259;83188;-57
2024/01/11 00:53:52;;;;;;;135.20;57.80;;;;;;;-9.00;78.92;101984.00;105339;1259;71857;-58
2024/01/11 00:56:21;;;;;;;148.30;62.70;;;;;;;-9.03;78.70;101986.23;105280;1259;69198;-58
2024/01/11 00:58:49;;;;;;;143.70;62.90;;;;;;;-9.07;78.53;101980.20;105353;1257;69183;-58
2024/01/11 01:01:17;;;;;;;150.70;63.50;;;;;;;-9.12;78.51;101965.80;105353;1258;74222;-58
2024/01/11 01:03:45;;;;;;;154.60;63.00;;;;;;;-9.11;78.83;101952.48;105355;1257;81447;-58
2024/01/11 01:06:14;;;;;;;162.30;68.30;;;;;;;-9.10;78.99;101952.73;105225;1257;71585;-57
2024/01/11 01:08:42;;;;;;;163.10;67.60;;;;;;;-9.08;79.18;101958.43;105330;1255;69092;-58
2024/01/11 01:11:10;;;;;;;165.80;65.10;;;;;;;-9.05;79.40;101956.94;105323;1259;69180;-58
2024/01/11 01:13:38;;;;;;;157.60;64.90;;;;;;;-9.03;79.36;101955.92;105374;1257;73343;-58
2024/01/11 01:16:06;;;;;;;151.50;60.70;;;;;;;-9.03;79.10;101949.45;105310;1259;81699;-58
2024/01/11 01:18:35;;;;;;;146.70;63.50;;;;;;;-9.03;79.19;101948.45;105295;1257;71466;-58
2024/01/11 01:21:06;;;;;;;156.60;62.80;;;;;;;-9.04;78.96;101937.02;105378;1259;69106;-58
2024/01/11 01:23:35;;;;;;;138.90;59.40;;;;;;;-9.04;79.17;101946.02;105316;1257;69150;-58
2024/01/11 01:26:03;;;;;;;144.30;59.00;;;;;;;-9.04;79.22;101947.17;105375;1257;75085;-58
2024/01/11 01:28:34;;;;;;;143.60;59.30;;;;;;;-9.03;79.41;101955.70;105291;1256;82109;-58
2024/01/11 01:31:02;;;;;;;135.30;56.70;;;;;;;-9.02;79.28;101963.06;105330;1259;71607;-57
2024/01/11 01:33:31;;;;;;;135.90;58.00;;;;;;;-9.07;78.77;101955.83;105232;1259;69180;-57
2024/01/11 01:35:59;;;;;;;144.40;59.30;;;;;;;-9.15;78.47;101946.92;105353;1259;69192;-56
2024/01/11 01:38:27;;;;;;;151.00;60.20;;;;;;;-9.19;78.72;101944.99;105271;1259;73512;-57
2024/01/11 01:40:56;;;;;;;128.40;54.30;;;;;;;-9.19;78.77;101938.35;105285;1256;81536;-57
2024/01/11 01:43:24;;;;;;;144.00;59.00;;;;;;;-9.20;79.06;101935.45;105340;1257;71353;-56
2024/01/11 01:45:52;;;;;;;123.00;54.40;;;;;;;-9.19;79.05;101933.27;105336;1256;69150;-57
2024/01/11 01:48:21;;;;;;;134.00;54.10;;;;;;;-9.21;78.91;101931.34;105377;1257;69185;-57
2024/01/11 01:50:52;;;;;;;130.00;57.50;;;;;;;-9.22;79.05;101936.35;105392;1257;73487;-57
2024/01/11 01:53:22;;;;;;;118.40;51.60;;;;;;;-9.22;78.96;101938.36;105285;1257;82005;-55
2024/01/11 01:55:51;;;;;;;123.70;53.70;;;;;;;-9.28;78.55;101937.95;105385;1257;71575;-56
2024/01/11 01:58:20;;;;;;;124.60;53.10;;;;;;;-9.32;78.50;101935.30;105322;1259;69137;-57
2024/01/11 02:00:51;;;;;;;136.30;58.90;;;;;;;-9.36;78.44;101932.46;105320;1257;69268;-56
2024/01/11 02:03:19;;;;;;;128.00;54.00;;;;;;;-9.39;78.54;101930.78;105336;1259;72743;-57
2024/01/11 02:05:48;;;;;;;130.30;54.50;;;;;;;-9.42;78.42;101921.44;105365;1257;82649;-56
2024/01/11 02:08:19;;;;;;;134.50;55.70;;;;;;;-9.46;78.51;101914.40;105379;1256;71790;-57
2024/01/11 02:10:47;;;;;;;121.20;52.50;;;;;;;-9.44;78.88;101905.06;105211;1260;69467;-56
2024/01/11 02:13:15;;;;;;;120.90;52.70;;;;;;;-9.39;78.98;101902.48;105350;1259;69241;-56
2024/01/11 02:15:45;;;;;;;125.10;54.80;;;;;;;-9.36;79.20;101894.59;105266;1260;72785;-57
2024/01/11 02:18:13;;;;;;;136.30;55.20;;;;;;;-9.41;78.86;101887.67;105316;1259;81253;-57
2024/01/11 02:20:42;;;;;;;123.50;52.20;;;;;;;-9.41;79.00;101882.58;105166;1257;71784;-57
2024/01/11 02:23:18;;;;;;;134.30;55.90;;;;;;;-9.40;78.88;101873.29;105261;1257;69109;-56
2024/01/11 02:25:46;;;;;;;147.20;58.40;;;;;;;-9.41;79.16;101863.62;105345;1259;69259;-57
2024/01/11 02:28:14;;;;;;;152.30;59.70;;;;;;;-9.44;78.86;101854.29;105344;1257;75594;-57
2024/01/11 02:30:43;;;;;;;140.90;58.70;;;;;;;-9.45;79.03;101855.05;105302;1259;81988;-58
2024/01/11 02:33:15;;;;;;;144.40;59.40;;;;;;;-9.40;79.47;101867.57;105265;1257;71415;-57
2024/01/11 02:35:44;;;;;;;146.10;58.20;;;;;;;-9.41;79.17;101877.32;105319;1257;69190;-57
2024/01/11 02:38:15;;;;;;;142.60;57.90;;;;;;;-9.45;78.72;101871.95;105360;1258;69311;-56
2024/01/11 02:40:44;;;;;;;143.10;55.10;;;;;;;-9.48;78.75;101858.95;105332;1257;73550;-56
2024/01/11 02:43:13;;;;;;;129.80;51.30;;;;;;;-9.45;79.29;101858.98;105375;1257;81719;-57
2024/01/11 02:45:41;;;;;;;116.20;49.10;;;;;;;-9.29;80.29;101864.25;105355;1258;70712;-57
2024/01/11 02:48:09;;;;;;;127.70;53.20;;;;;;;-9.15;80.65;101865.14;105282;1257;69094;-57
2024/01/11 02:50:37;;;;;;;121.20;50.00;;;;;;;-9.09;80.26;101855.89;105371;1259;69195;-57
2024/01/11 02:53:06;;;;;;;129.20;51.60;;;;;;;-9.09;79.96;101861.04;105286;1257;73976;-57
2024/01/11 02:55:34;;;;;;;125.10;51.40;;;;;;;-9.07;79.80;101863.14;105293;1259;81997;-57
2024/01/11 02:58:02;;;;;;;123.90;51.20;;;;;;;-9.07;79.72;101869.77;105261;1257;70903;-57
2024/01/11 03:00:30;;;;;;;133.70;54.00;;;;;;;-9.00;80.02;101866.48;105294;1255;69121;-58
2024/01/11 03:02:58;;;;;;;121.00;51.10;;;;;;;-8.97;79.82;101866.31;105312;1259;69203;-58
2024/01/11 03:05:27;;;;;;;133.20;54.40;;;;;;;-8.95;80.02;101874.23;105322;1255;75229;-57
2024/01/11 03:07:55;;;;;;;139.70;57.50;;;;;;;-8.88;80.68;101885.73;105367;1259;81612;-57
2024/01/11 03:10:23;;;;;;;134.20;54.60;;;;;;;-8.83;80.76;101889.27;105216;1259;71363;-58
2024/01/11 03:12:52;;;;;;;137.90;55.10;;;;;;;-8.79;81.01;101900.54;105382;1257;69083;-59
2024/01/11 03:15:20;;;;;;;150.70;57.90;;;;;;;-8.75;80.95;101904.52;105282;1259;69141;-58
2024/01/11 03:17:48;;;;;;;131.40;57.00;;;;;;;-8.72;81.07;101905.88;105310;1257;74044;-58
2024/01/11 03:20:20;;;;;;;136.50;55.90;;;;;;;-8.72;80.86;101907.63;105350;1259;81294;-58
2024/01/11 03:22:48;;;;;;;134.20;58.30;;;;;;;-8.71;80.76;101905.80;105288;1259;72872;-58
2024/01/11 03:25:16;;;;;;;132.70;55.60;;;;;;;-8.75;80.43;101902.98;105261;1257;69091;-58
2024/01/11 03:27:44;;;;;;;135.30;56.80;;;;;;;-8.80;80.32;101896.63;105245;1259;69118;-58
2024/01/11 03:30:13;;;;;;;126.90;56.40;;;;;;;-8.80;80.37;101894.91;105304;1257;75326;-58
2024/01/11 03:32:41;;;;;;;133.10;56.00;;;;;;;-8.80;80.18;101892.35;105351;1257;81436;-58
2024/01/11 03:35:10;;;;;;;126.80;55.60;;;;;;;-8.78;80.37;101899.27;105272;1255;70425;-58
2024/01/11 03:37:38;;;;;;;124.60;52.50;;;;;;;-8.80;80.20;101904.77;105354;1259;69110;-58
2024/01/11 03:40:07;;;;;;;132.00;56.50;;;;;;;-8.84;79.90;101905.51;105289;1259;69203;-58
2024/01/11 03:42:35;;;;;;;124.70;54.90;;;;;;;-8.86;79.97;101901.32;105235;1257;73746;-58
2024/01/11 03:45:04;;;;;;;140.10;58.00;;;;;;;-8.87;79.67;101898.66;105292;1259;81664;-58
2024/01/11 03:47:32;;;;;;;150.70;61.30;;;;;;;-8.91;79.78;101890.83;105322;1257;72423;-58
2024/01/11 03:50:01;;;;;;;165.80;63.00;;;;;;;-8.92;79.88;101886.00;105245;1259;69212;-58
2024/01/11 03:52:30;;;;;;;144.20;63.80;;;;;;;-8.90;80.05;101885.57;105319;1259;69174;-58
2024/01/11 03:54:58;;;;;;;140.40;57.70;;;;;;;-8.90;80.20;101884.59;105272;1259;73472;-58
2024/01/11 03:57:26;;;;;;;146.60;58.80;;;;;;;-8.88;80.10;101886.27;105341;1259;81607;-58
2024/01/11 03:59:54;;;;;;;135.00;56.10;;;;;;;-8.90;79.86;101889.81;105276;1257;71722;-58
2024/01/11 04:02:22;;;;;;;136.20;58.20;;;;;;;-8.94;79.77;101883.32;105276;1255;69180;-58
2024/01/11 04:04:51;;;;;;;131.40;55.60;;;;;;;-8.97;79.80;101879.90;105341;1258;69237;-58
2024/01/11 04:07:19;;;;;;;139.50;57.20;;;;;;;-8.98;79.90;101873.07;105288;1257;72467;-58
2024/01/11 04:09:47;;;;;;;151.30;63.90;;;;;;;-8.97;80.20;101858.55;105294;1256;81321;-58
2024/01/11 04:12:15;;;;;;;141.40;58.70;;;;;;;-8.89;80.61;101864.68;105297;1257;71502;-58
2024/01/11 04:14:43;;;;;;;146.90;64.00;;;;;;;-8.78;81.05;101875.54;105262;1255;69175;-58
2024/01/11 04:17:12;;;;;;;153.20;60.70;;;;;;;-8.69;81.28;101861.37;105300;1256;69212;-58
2024/01/11 04:19:40;;;;;;;138.30;59.30;;;;;;;-8.59;81.59;101850.36;105308;1257;74816;-58
2024/01/11 04:22:08;;;;;;;169.80;67.30;;;;;;;-8.45;81.80;101848.31;105306;1259;81715;-58
2024/01/11 04:24:36;;;;;;;176.50;70.10;;;;;;;-8.37;82.26;101842.85;105355;1258;71751;-58
2024/01/11 04:27:05;;;;;;;154.70;65.20;;;;;;;-8.31;82.33;101842.06;105279;1255;69606;-58
2024/01/11 04:29:33;;;;;;;160.40;64.70;;;;;;;-8.24;82.67;101846.86;105339;1259;69193;-57
2024/01/11 04:32:01;;;;;;;165.30;66.90;;;;;;;-8.15;82.59;101842.34;105389;1257;73751;-57
2024/01/11 04:34:31;;;;;;;166.10;68.40;;;;;;;-8.06;83.09;101835.08;105308;1259;82852;-58
2024/01/11 04:36:59;;;;;;;148.60;63.20;;;;;;;-7.98;83.26;101840.52;105361;1259;72365;-58
2024/01/11 04:39:27;;;;;;;162.80;68.30;;;;;;;-7.90;83.24;101839.83;105297;1259;69201;-58
2024/01/11 04:41:55;;;;;;;160.50;67.50;;;;;;;-7.83;83.17;101832.07;105319;1259;69179;-58
2024/01/11 04:44:23;;;;;;;159.60;66.20;;;;;;;-7.77;83.28;101824.13;105337;1257;72726;-58
2024/01/11 04:46:54;;;;;;;168.90;67.90;;;;;;;-7.70;83.26;101820.14;105296;1259;81966;-58
2024/01/11 04:49:23;;;;;;;153.20;67.20;;;;;;;-7.62;83.51;101830.27;105349;1257;71607;-58
2024/01/11 04:51:51;;;;;;;164.10;70.20;;;;;;;-7.55;83.34;101840.52;105297;1257;69158;-58
2024/01/11 04:54:19;;;;;;;160.60;71.20;;;;;;;-7.49;83.69;101847.84;105310;1259;69192;-58
2024/01/11 04:56:48;;;;;;;179.80;71.90;;;;;;;-7.42;83.98;101845.20;105313;1257;73013;-58
2024/01/11 04:59:16;;;;;;;162.70;71.40;;;;;;;-7.33;84.42;101831.30;105334;1259;81753;-59
2024/01/11 05:01:46;;;;;;;152.40;69.40;;;;;;;-7.21;84.30;101813.17;105278;1257;71940;-58
2024/01/11 05:04:14;;;;;;;141.70;67.00;;;;;;;-7.08;84.44;101813.02;105291;1259;69218;-59
2024/01/11 05:06:42;;;;;;;147.60;65.50;;;;;;;-6.99;84.26;101803.17;105267;1259;69189;-59
2024/01/11 05:09:10;;;;;;;143.10;65.40;;;;;;;-6.93;84.05;101794.19;105367;1257;74665;-56
2024/01/11 05:11:39;;;;;;;125.80;57.50;;;;;;;-6.88;83.96;101792.75;105256;1259;81826;-56
2024/01/11 05:14:07;;;;;;;120.70;54.30;;;;;;;-6.81;83.78;101798.43;105274;1257;72035;-56
2024/01/11 05:16:35;;;;;;;123.00;54.80;;;;;;;-6.72;83.68;101810.80;105282;1259;69105;-56
2024/01/11 05:19:03;;;;;;;121.40;55.40;;;;;;;-6.66;83.68;101813.70;105293;1255;70533;-56
2024/01/11 05:21:32;;;;;;;129.60;55.80;;;;;;;-6.60;83.72;101801.25;105248;1259;75235;-56
2024/01/11 05:24:01;;;;;;;126.10;56.10;;;;;;;-6.60;83.35;101793.10;105358;1259;81729;-56
2024/01/11 05:26:29;;;;;;;92.60;41.70;;;;;;;-6.61;83.20;101793.42;105310;1257;71497;-56
2024/01/11 05:28:58;;;;;;;90.40;41.40;;;;;;;-6.52;83.07;101782.68;105283;1257;69138;-56
2024/01/11 05:31:26;;;;;;;90.00;39.80;;;;;;;-6.45;82.86;101775.05;105324;1257;69186;-57
2024/01/11 05:33:55;;;;;;;92.00;41.60;;;;;;;-6.43;82.61;101769.20;105238;1257;73854;-57
2024/01/11 05:36:23;;;;;;;100.70;45.10;;;;;;;-6.41;82.48;101764.38;105261;1257;82856;-56
2024/01/11 05:38:51;;;;;;;89.70;40.90;;;;;;;-6.36;82.36;101760.06;105337;1257;70201;-56
2024/01/11 05:41:19;;;;;;;83.00;34.70;;;;;;;-6.28;82.22;101747.89;105266;1257;69109;-56
2024/01/11 05:43:47;;;;;;;86.70;36.90;;;;;;;-6.24;82.19;101736.87;105291;1259;69158;-56
2024/01/11 05:46:16;;;;;;;87.10;37.50;;;;;;;-6.20;82.16;101731.32;105278;1257;72573;-56
2024/01/11 05:48:44;;;;;;;93.50;37.70;;;;;;;-6.13;82.23;101744.08;105285;1259;83274;-56
2024/01/11 05:51:12;;;;;;;94.80;42.00;;;;;;;-6.07;82.19;101749.32;105299;1257;73368;-57
2024/01/11 05:53:40;;;;;;;98.40;39.50;;;;;;;-6.06;82.03;101748.88;105272;1256;69091;-55
2024/01/11 05:56:10;;;;;;;99.10;41.50;;;;;;;-6.06;81.90;101737.97;105321;1259;69208;-56
2024/01/11 05:58:39;;;;;;;98.80;41.10;;;;;;;-6.11;81.40;101738.57;105324;1259;74210;-56
2024/01/11 06:01:08;;;;;;;103.70;44.80;;;;;;;-6.16;81.34;101747.16;105346;1258;81550;-56
2024/01/11 06:03:38;;;;;;;115.50;49.70;;;;;;;-6.22;81.36;101746.01;105331;1256;70611;-56
2024/01/11 06:06:07;;;;;;;102.20;44.80;;;;;;;-6.26;81.38;101749.02;105326;1257;69090;-56
2024/01/11 06:08:35;;;;;;;97.60;42.80;;;;;;;-6.27;81.34;101748.25;105337;1259;69265;-56
2024/01/11 06:11:04;;;;;;;97.20;43.00;;;;;;;-6.27;81.14;101751.83;105291;1259;74111;-56
2024/01/11 06:13:32;;;;;;;105.90;46.00;;;;;;;-6.26;81.32;101753.59;105297;1257;81988;-56
2024/01/11 06:16:01;;;;;;;99.60;43.70;;;;;;;-6.27;81.09;101749.29;105264;1259;72021;-56
2024/01/11 06:18:30;;;;;;;99.80;42.10;;;;;;;-6.28;81.04;101742.64;105272;1255;69083;-57
2024/01/11 06:20:58;;;;;;;102.70;39.90;;;;;;;-6.26;80.86;101741.33;105350;1257;69189;-59
2024/01/11 06:23:27;;;;;;;94.70;40.40;;;;;;;-6.25;80.99;101745.65;105353;1256;73797;-53
2024/01/11 06:25:55;;;;;;;96.50;41.00;;;;;;;-6.22;81.00;101738.67;105489;1260;81367;-55
2024/01/11 06:28:24;;;;;;;94.40;41.40;;;;;;;-6.19;80.80;101740.52;105336;1259;71974;-54
2024/01/11 06:30:53;;;;;;;83.60;39.20;;;;;;;-6.16;80.81;101746.12;105394;1259;69131;-57
2024/01/11 06:33:22;;;;;;;86.20;37.70;;;;;;;-6.10;80.51;101744.93;105573;1258;69200;-58
2024/01/11 06:35:50;;;;;;;74.70;33.10;;;;;;;-6.00;80.29;101758.52;105490;1257;74230;-55
2024/01/11 06:38:18;;;;;;;93.90;41.30;;;;;;;-5.94;80.06;101752.54;105323;1257;82078;-55
2024/01/11 06:40:48;;;;;;;68.70;31.70;;;;;;;-5.89;80.00;101746.98;105307;1259;71701;-54
2024/01/11 06:43:16;;;;;;;71.70;33.50;;;;;;;-5.83;80.13;101744.05;105373;1259;69096;-57
2024/01/11 06:45:44;;;;;;;77.70;33.50;;;;;;;-5.76;79.97;101738.11;105270;1259;69067;-55
2024/01/11 06:48:13;;;;;;;92.70;39.40;;;;;;;-5.71;79.80;101716.41;105396;1256;74300;-56
2024/01/11 06:50:41;;;;;;;95.70;36.00;;;;;;;-5.66;79.84;101708.15;105362;1259;81815;-54
2024/01/11 06:53:09;;;;;;;80.40;32.00;;;;;;;-5.59;79.58;101724.98;105315;1259;72331;-56
2024/01/11 06:55:38;;;;;;;73.90;32.00;;;;;;;-5.52;79.40;101731.98;105403;1258;69132;-59
2024/01/11 06:58:06;;;;;;;83.20;38.20;;;;;;;-5.48;79.15;101720.80;105374;1258;69236;-58
2024/01/11 07:00:35;;;;;;;99.50;40.00;;;;;;;-5.48;79.11;101702.38;105354;1257;73988;-59
2024/01/11 07:03:03;;;;;;;82.70;35.20;;;;;;;-5.47;78.95;101692.38;105318;1259;81613;-59
2024/01/11 07:05:32;;;;;;;86.80;37.30;;;;;;;-5.45;78.82;101681.91;105437;1257;73833;-59
2024/01/11 07:08:00;;;;;;;112.10;45.70;;;;;;;-5.43;78.64;101674.71;105306;1257;69080;-58
2024/01/11 07:10:28;;;;;;;89.80;38.60;;;;;;;-5.41;78.57;101673.92;105351;1257;69175;-59
2024/01/11 07:12:56;;;;;;;95.50;36.50;;;;;;;-5.41;78.36;101680.73;105365;1257;75981;-59
2024/01/11 07:15:25;;;;;;;92.10;34.90;;;;;;;-5.41;78.18;101675.61;105309;1259;81392;-59
2024/01/11 07:17:53;;;;;;;106.50;40.80;;;;;;;-5.42;78.12;101675.43;105412;1260;71584;-58
2024/01/11 07:20:21;;;;;;;80.90;33.40;;;;;;;-5.43;77.79;101667.88;105416;1259;69064;-59
2024/01/11 07:22:50;;;;;;;86.20;35.50;;;;;;;-5.44;77.47;101667.83;105277;1259;69128;-59
2024/01/11 07:25:18;;;;;;;78.10;33.60;;;;;;;-5.45;77.44;101666.09;105304;1259;75013;-58
2024/01/11 07:27:46;;;;;;;77.20;33.00;;;;;;;-5.45;77.21;101672.19;105504;1257;83101;-59
2024/01/11 07:30:14;;;;;;;81.40;34.80;;;;;;;-5.45;76.92;101664.35;105297;1259;71149;-58
2024/01/11 07:32:43;;;;;;;68.70;30.50;;;;;;;-5.44;76.89;101672.75;105371;1259;69142;-58
2024/01/11 07:35:12;;;;;;;65.70;30.90;;;;;;;-5.44;76.79;101669.52;105348;1258;69118;-58
2024/01/11 07:37:45;;;;;;;67.40;30.60;;;;;;;-5.42;76.65;101669.45;105338;1257;73608;-58
2024/01/11 07:40:14;;;;;;;73.60;31.50;;;;;;;-5.41;76.47;101672.60;105358;1259;81512;-58
2024/01/11 07:42:43;;;;;;;73.40;31.60;;;;;;;-5.37;76.45;101661.86;105271;1257;71668;-58
2024/01/11 07:45:11;;;;;;;69.30;29.80;;;;;;;-5.33;76.40;101654.52;105454;1256;69101;-59
2024/01/11 07:47:39;;;;;;;72.70;32.20;;;;;;;-5.30;76.20;101658.95;105314;1261;69158;-58
2024/01/11 07:50:15;;;;;;;70.10;32.00;;;;;;;-5.24;76.06;101669.77;105353;1256;74339;-58
2024/01/11 07:52:43;;;;;;;75.40;34.60;;;;;;;-5.19;76.11;101672.08;105267;1257;81305;-58
2024/01/11 07:55:12;;;;;;;73.80;34.60;;;;;;;-5.15;76.06;101674.65;105316;1257;72764;-58
2024/01/11 07:57:41;;;;;;;80.70;35.90;;;;;;;-5.09;76.06;101667.75;105434;1262;69125;-59
2024/01/11 08:00:09;;;;;;;75.50;32.30;;;;;;;-5.05;75.95;101663.88;105337;1262;69176;-58
2024/01/11 08:02:40;;;;;;;78.20;36.90;;;;;;;-5.02;75.82;101661.13;105389;1260;73945;-58
2024/01/11 08:05:09;;;;;;;73.80;34.30;;;;;;;-4.97;75.76;101667.67;105497;1256;81531;-59
2024/01/11 08:07:38;;;;;;;78.30;34.00;;;;;;;-4.92;75.68;101660.88;105322;1260;72610;-59
2024/01/11 08:10:07;;;;;;;85.40;37.60;;;;;;;-4.88;75.59;101655.27;105261;1260;69212;-58
2024/01/11 08:12:36;;;;;;;72.60;33.00;;;;;;;-4.83;75.45;101651.77;105344;1262;69233;-58
2024/01/11 08:15:05;;;;;;;75.20;34.60;;;;;;;-4.78;75.45;101651.64;105308;1256;74730;-59
2024/01/11 08:17:33;;;;;;;72.90;32.30;;;;;;;-4.74;75.27;101662.92;105358;1260;81112;-60
2024/01/11 08:20:01;;;;;;;73.40;34.00;;;;;;;-4.68;75.33;101669.64;105234;1262;72348;-59
2024/01/11 08:22:33;;;;;;;78.70;36.00;;;;;;;-4.65;75.38;101659.89;105302;1259;69164;-57
2024/01/11 08:25:04;;;;;;;76.80;35.40;;;;;;;-4.64;75.10;101655.66;105363;1257;69075;-56
2024/01/11 08:27:33;;;;;;;77.80;35.20;;;;;;;-4.65;74.99;101646.77;105331;1257;74249;-57
2024/01/11 08:30:02;;;;;;;82.00;37.50;;;;;;;-4.64;74.86;101644.08;105263;1260;81511;-57
2024/01/11 08:32:30;;;;;;;72.30;34.80;;;;;;;-4.63;74.78;101649.08;105436;1262;73553;-56
2024/01/11 08:34:59;;;;;;;77.70;35.20;;;;;;;-4.59;74.73;101660.34;105294;1257;69174;-57
2024/01/11 08:37:28;;;;;;;74.50;33.40;;;;;;;-4.55;74.77;101676.21;105261;1257;69121;-57
2024/01/11 08:39:56;;;;;;;70.00;34.30;;;;;;;-4.50;75.00;101675.27;105277;1260;74582;-57
2024/01/11 08:42:24;;;;;;;78.20;35.60;;;;;;;-4.46;74.73;101673.84;105234;1257;81584;-57
2024/01/11 08:44:52;;;;;;;76.80;34.80;;;;;;;-4.47;74.62;101676.03;105227;1260;73041;-57
2024/01/11 08:47:21;;;;;;;74.50;33.90;;;;;;;-4.48;74.62;101678.59;105365;1257;69212;-57
2024/01/11 08:49:49;;;;;;;72.30;32.30;;;;;;;-4.46;74.50;101681.73;105473;1262;69147;-58
2024/01/11 08:52:18;;;;;;;71.30;33.20;;;;;;;-4.43;74.62;101678.80;105255;1257;74706;-57
2024/01/11 08:54:46;;;;;;;66.00;31.10;;;;;;;-4.38;74.64;101673.56;105341;1262;83415;-58
2024/01/11 08:57:15;;;;;;;73.80;31.20;;;;;;;-4.33;74.70;101679.39;105218;1260;73297;-53
2024/01/11 08:59:43;;;;;;;71.40;33.50;;;;;;;-4.27;74.63;101685.30;105365;1257;69121;-53
2024/01/11 09:02:11;;;;;;;75.40;32.30;;;;;;;-4.22;74.69;101686.89;105249;1260;69917;-55
2024/01/11 09:04:47;;;;;;;74.20;32.60;;;;;;;-4.15;74.67;101684.44;105346;1260;75202;-54
2024/01/11 09:07:16;;;;;;;73.90;34.20;;;;;;;-4.08;74.78;101686.30;105189;1256;81722;-56
2024/01/11 09:09:45;;;;;;;75.90;34.80;;;;;;;-4.00;74.79;101687.80;105332;1260;73470;-55
2024/01/11 09:12:23;;;;;;;73.10;33.60;;;;;;;-3.93;74.72;101685.41;105178;1256;69151;-55
2024/01/11 09:14:51;;;;;;;72.90;32.60;;;;;;;-3.86;74.72;101685.02;105281;1260;69139;-55
2024/01/11 09:17:21;;;;;;;80.70;34.90;;;;;;;-3.77;74.70;101693.23;105242;1257;74961;-54
2024/01/11 09:19:50;;;;;;;76.00;34.80;;;;;;;-3.70;74.75;101697.63;105272;1260;82070;-52
2024/01/11 09:22:19;;;;;;;71.70;33.80;;;;;;;-3.64;74.49;101697.36;105297;1262;71631;-53
2024/01/11 09:24:47;;;;;;;73.90;35.00;;;;;;;-3.64;74.31;101694.48;105216;1260;69875;-54
2024/01/11 09:27:15;;;;;;;78.00;34.80;;;;;;;-3.62;74.28;101696.11;105326;1260;69804;-50
2024/01/11 09:29:44;;;;;;;83.20;36.80;;;;;;;-3.59;74.08;101689.38;105213;1261;72823;-52
2024/01/11 09:32:13;;;;;;;84.60;36.60;;;;;;;-3.54;74.05;101697.09;105318;1262;81635;-53
2024/01/11 09:34:41;;;;;;;78.40;36.10;;;;;;;-3.51;74.08;101695.34;105274;1260;72183;-50
2024/01/11 09:37:09;;;;;;;76.10;36.60;;;;;;;-3.47;73.98;101691.59;105302;1260;69913;-54
2024/01/11 09:39:38;;;;;;;75.10;36.00;;;;;;;-3.49;73.74;101682.63;105297;1260;69183;-53
2024/01/11 09:42:07;;;;;;;78.10;35.70;;;;;;;-3.50;73.62;101674.02;105529;1260;73496;-54
2024/01/11 09:44:39;;;;;;;78.00;35.90;;;;;;;-3.50;73.63;101662.23;105338;1262;81650;-53
2024/01/11 09:47:08;;;;;;;78.70;38.10;;;;;;;-3.50;73.47;101660.88;105408;1260;71758;-51
2024/01/11 09:49:42;;;;;;;70.30;32.90;;;;;;;-3.50;73.35;101663.41;105332;1260;69103;-51
2024/01/11 09:52:12;;;;;;;77.20;35.20;;;;;;;-3.52;73.35;101655.66;105205;1260;69190;-52
2024/01/11 09:54:41;;;;;;;74.30;35.80;;;;;;;-3.52;73.44;101652.56;105324;1260;74016;-52
2024/01/11 09:57:09;;;;;;;76.40;33.80;;;;;;;-3.54;73.26;101659.18;105360;1260;82108;-53
2024/01/11 09:59:38;;;;;;;79.50;37.90;;;;;;;-3.50;73.44;101661.19;105372;1257;73760;-53
2024/01/11 10:02:09;;;;;;;80.40;37.70;;;;;;;-3.50;73.29;101648.22;105266;1262;69205;-50
2024/01/11 10:04:37;;;;;;;73.70;34.50;;;;;;;-3.49;73.25;101643.65;105461;1260;69858;-53
2024/01/11 10:07:06;;;;;;;81.00;36.50;;;;;;;-3.44;73.40;101644.20;105251;1260;74184;-51
2024/01/11 10:09:35;;;;;;;77.70;34.30;;;;;;;-3.41;73.36;101635.27;105362;1256;80725;-52
2024/01/11 10:12:05;;;;;;;78.20;35.50;;;;;;;-3.37;73.56;101640.38;105347;1260;71206;-54
2024/01/11 10:14:33;;;;;;;76.70;33.60;;;;;;;-3.34;73.58;101643.89;105362;1258;69185;-53
2024/01/11 10:17:01;;;;;;;74.70;36.70;;;;;;;-3.32;73.69;101638.52;105375;1258;69251;-53
2024/01/11 10:19:30;;;;;;;78.60;35.60;;;;;;;-3.32;73.60;101636.45;105152;1261;73851;-53
2024/01/11 10:21:59;;;;;;;76.40;35.90;;;;;;;-3.35;73.53;101634.11;105318;1263;81819;-55
2024/01/11 10:24:28;;;;;;;76.40;34.50;;;;;;;-3.36;73.66;101630.83;105303;1261;72062;-53
2024/01/11 10:26:58;;;;;;;76.30;36.40;;;;;;;-3.32;73.84;101633.73;105320;1257;69890;-51
2024/01/11 10:29:30;;;;;;;83.60;36.30;;;;;;;-3.29;73.89;101637.60;105366;1260;69897;-53
2024/01/11 10:31:59;;;;;;;75.10;35.70;;;;;;;-3.25;74.11;101639.46;105351;1260;73817;-51
2024/01/11 10:34:27;;;;;;;73.60;35.20;;;;;;;-3.21;74.14;101639.44;105382;1260;83574;-53
2024/01/11 10:36:56;;;;;;;72.60;35.60;;;;;;;-3.16;74.29;101642.55;105185;1262;73858;-54
2024/01/11 10:39:26;;;;;;;74.80;35.90;;;;;;;-3.07;74.51;101651.92;105225;1261;69167;-58
2024/01/11 10:42:04;;;;;;;71.50;35.50;;;;;;;-3.01;74.49;101658.52;105059;1261;331563;-58
2024/01/11 10:44:35;;;;;;;80.50;36.50;;;;;;;-2.96;74.51;101647.41;105366;1258;73855;-58
2024/01/11 10:47:06;;;;;;;79.10;37.30;;;;;;;-3.01;73.89;101641.25;105397;1260;83263;-57
2024/01/11 10:49:39;;;;;;;79.50;38.30;;;;;;;-3.07;74.02;101636.59;105295;1260;73410;-57
2024/01/11 10:52:08;;;;;;;75.70;34.90;;;;;;;-3.05;73.98;101643.98;105350;1256;69006;-58
2024/01/11 10:54:36;;;;;;;79.80;36.70;;;;;;;-2.99;74.17;101653.14;105485;1256;69171;-58
2024/01/11 10:57:05;;;;;;;73.40;34.80;;;;;;;-2.92;74.40;101655.09;105147;1261;73731;-58
2024/01/11 10:59:35;;;;;;;65.40;33.90;;;;;;;-2.85;74.61;101651.60;105288;1270;81378;-58
2024/01/11 11:02:06;;;;;;;77.30;38.70;;;;;;;-2.78;74.68;101646.40;105370;1261;72291;-57
2024/01/11 11:04:35;;;;;;;85.10;38.50;;;;;;;-2.67;74.85;101644.23;105357;1260;69175;-57